createdAt,value
2023-08-19T00:01:10.287Z,59.10
2023-08-19T00:03:38.850Z,58.88
2023-08-19T00:06:07.759Z,58.80
2023-08-19T00:08:36.185Z,58.84
2023-08-19T00:11:04.547Z,59.13
2023-08-19T00:13:32.184Z,59.42
2023-08-19T00:15:59.820Z,59.80
2023-08-19T00:18:28.530Z,60.20
2023-08-19T00:20:56.449Z,60.51
2023-08-19T00:23:25.065Z,60.57
2023-08-19T00:25:52.689Z,60.86
2023-08-19T00:28:20.219Z,60.83
2023-08-19T00:30:47.702Z,60.98
2023-08-19T00:33:15.266Z,61.20
2023-08-19T00:35:43.676Z,61.21
2023-08-19T00:38:11.315Z,61.25
2023-08-19T00:40:38.929Z,61.37
2023-08-19T00:43:06.901Z,61.34
2023-08-19T00:45:34.388Z,61.54
2023-08-19T00:48:04.279Z,61.48
2023-08-19T00:50:31.935Z,61.69
2023-08-19T00:52:59.501Z,61.75
2023-08-19T00:55:26.841Z,61.83
2023-08-19T00:57:54.193Z,61.91
2023-08-19T01:00:21.595Z,61.79
2023-08-19T01:02:49.230Z,61.60
2023-08-19T01:05:16.833Z,61.77
2023-08-19T01:07:50.319Z,61.57
2023-08-19T01:10:33.206Z,61.47
2023-08-19T01:13:12.278Z,61.35
2023-08-19T01:28:52.890Z,61.66
2023-08-19T01:31:20.485Z,60.29
2023-08-19T01:33:48.442Z,60.09
2023-08-19T01:36:33.773Z,59.96
2023-08-19T01:39:06.379Z,59.87
2023-08-19T01:41:33.932Z,59.72
2023-08-19T01:44:01.595Z,59.67
2023-08-19T01:46:28.988Z,59.69
2023-08-19T01:48:56.462Z,59.82
2023-08-19T01:51:24.175Z,60.02
2023-08-19T01:53:51.632Z,60.07
2023-08-19T01:56:19.301Z,60.19
2023-08-19T01:58:47.148Z,60.23
2023-08-19T02:01:14.684Z,60.25
2023-08-19T02:03:42.180Z,60.40
2023-08-19T02:06:09.746Z,60.74
2023-08-19T02:08:37.121Z,60.95
2023-08-19T02:11:04.659Z,61.11
2023-08-19T02:13:32.422Z,61.18
2023-08-19T02:16:00.264Z,61.40
2023-08-19T02:18:29.538Z,61.49
2023-08-19T02:20:57.148Z,61.58
2023-08-19T02:23:24.708Z,61.69
2023-08-19T02:25:53.500Z,61.47
2023-08-19T02:28:21.103Z,61.67
2023-08-19T02:30:48.487Z,61.84
2023-08-19T02:33:15.984Z,61.92
2023-08-19T02:35:50.827Z,62.10
2023-08-19T02:38:18.364Z,62.24
2023-08-19T02:40:52.376Z,62.31
2023-08-19T02:43:19.977Z,62.33
2023-08-19T02:45:47.525Z,62.15
2023-08-19T02:48:16.294Z,62.16
2023-08-19T02:50:44.101Z,62.20
2023-08-19T02:53:11.612Z,62.30
2023-08-19T02:55:42.713Z,62.49
2023-08-19T02:58:10.863Z,62.62
2023-08-19T03:00:38.454Z,62.81
2023-08-19T03:03:07.147Z,62.85
2023-08-19T03:05:40.619Z,62.90
2023-08-19T03:08:09.360Z,62.91
2023-08-19T03:10:37.780Z,63.08
2023-08-19T03:13:05.863Z,63.09
2023-08-19T03:15:34.119Z,63.22
2023-08-19T03:18:01.682Z,63.45
2023-08-19T03:20:29.930Z,63.28
2023-08-19T03:22:57.492Z,63.32
2023-08-19T03:25:24.969Z,63.25
2023-08-19T03:27:52.526Z,63.55
2023-08-19T03:30:20.604Z,63.62
2023-08-19T03:32:48.057Z,63.72
2023-08-19T03:35:15.646Z,63.84
2023-08-19T03:37:43.258Z,64.07
2023-08-19T03:40:11.334Z,64.09
2023-08-19T03:42:38.890Z,64.09
2023-08-19T03:45:07.050Z,64.12
2023-08-19T03:47:34.982Z,64.07
2023-08-19T03:50:02.924Z,64.24
2023-08-19T03:52:30.461Z,64.19
2023-08-19T03:54:57.849Z,64.10
2023-08-19T03:57:25.590Z,64.03
2023-08-19T03:59:53.355Z,63.87
2023-08-19T04:02:20.907Z,63.74
2023-08-19T04:05:10.915Z,63.75
2023-08-19T04:07:39.079Z,63.57
2023-08-19T04:10:07.352Z,63.52
2023-08-19T04:12:35.036Z,63.20
2023-08-19T04:15:02.446Z,62.83
2023-08-19T04:17:30.648Z,62.80
2023-08-19T04:19:58.717Z,62.84
2023-08-19T04:22:26.282Z,63.01
2023-08-19T04:24:56.602Z,63.22
2023-08-19T04:27:25.179Z,63.38
2023-08-19T04:29:53.353Z,63.35
2023-08-19T04:32:20.929Z,63.12
2023-08-19T04:34:48.793Z,63.01
2023-08-19T04:37:16.236Z,62.90
2023-08-19T04:39:43.932Z,62.80
2023-08-19T04:42:21.907Z,62.87
2023-08-19T04:44:49.369Z,62.62
2023-08-19T04:47:18.150Z,62.46
2023-08-19T04:49:45.639Z,62.37
2023-08-19T04:52:13.000Z,61.99
2023-08-19T04:54:40.530Z,61.52
2023-08-19T04:57:08.406Z,61.65
2023-08-19T04:59:35.963Z,61.59
2023-08-19T05:02:03.921Z,61.57
2023-08-19T05:04:31.514Z,61.03
2023-08-19T05:06:59.121Z,60.57
2023-08-19T05:09:26.710Z,60.46
2023-08-19T05:11:54.311Z,60.39
2023-08-19T05:14:21.919Z,60.21
2023-08-19T05:16:49.802Z,60.07
2023-08-19T05:19:18.904Z,60.00
2023-08-19T05:21:49.747Z,60.03
2023-08-19T05:24:17.906Z,59.89
2023-08-19T05:26:46.428Z,59.72
2023-08-19T05:29:14.316Z,59.41
2023-08-19T05:31:43.502Z,59.15
2023-08-19T05:34:11.630Z,59.13
2023-08-19T05:36:39.115Z,59.02
2023-08-19T05:39:06.556Z,58.68
2023-08-19T05:41:34.306Z,58.73
2023-08-19T05:44:01.920Z,58.82
2023-08-19T05:46:29.443Z,58.61
2023-08-19T05:48:57.111Z,58.56
2023-08-19T05:51:24.548Z,58.64
2023-08-19T05:53:51.945Z,58.83
2023-08-19T05:56:19.465Z,58.54
2023-08-19T05:58:47.476Z,58.36
2023-08-19T06:01:14.994Z,58.12
2023-08-19T06:03:42.439Z,58.22
2023-08-19T06:06:09.836Z,57.94
2023-08-19T06:08:37.316Z,58.03
2023-08-19T06:11:08.629Z,57.81
2023-08-19T06:13:36.375Z,57.71
2023-08-19T06:16:07.755Z,57.52
2023-08-19T06:18:35.458Z,57.48
2023-08-19T06:21:04.111Z,57.14
2023-08-19T06:23:31.934Z,57.30
2023-08-19T06:25:59.606Z,57.25
2023-08-19T06:28:27.272Z,56.97
2023-08-19T06:30:55.023Z,57.03
2023-08-19T06:33:22.969Z,57.20
2023-08-19T06:35:51.020Z,57.40
2023-08-19T06:38:25.160Z,57.24
2023-08-19T06:41:11.589Z,57.15
2023-08-19T06:43:39.606Z,56.90
2023-08-19T06:46:08.090Z,57.04
2023-08-19T06:48:35.954Z,57.05
2023-08-19T06:51:04.638Z,56.78
2023-08-19T06:53:32.732Z,56.59
2023-08-19T06:56:45.225Z,56.39
2023-08-19T06:59:16.029Z,56.07
2023-08-19T07:01:47.575Z,55.58
2023-08-19T07:04:15.849Z,55.63
2023-08-19T07:06:43.421Z,55.44
2023-08-19T07:09:12.728Z,55.42
2023-08-19T07:11:40.410Z,55.44
2023-08-19T07:14:08.444Z,55.03
2023-08-19T07:16:36.036Z,54.86
2023-08-19T07:19:04.935Z,54.88
2023-08-19T07:21:32.867Z,54.93
2023-08-19T07:24:00.554Z,54.47
2023-08-19T07:26:28.190Z,54.31
2023-08-19T07:28:55.965Z,53.99
2023-08-19T07:31:23.933Z,54.17
2023-08-19T07:33:51.487Z,53.70
2023-08-19T07:36:18.940Z,53.27
2023-08-19T07:38:49.373Z,53.14
2023-08-19T07:41:16.828Z,52.99
2023-08-19T07:43:44.197Z,52.53
2023-08-19T07:46:16.691Z,52.48
2023-08-19T07:48:47.612Z,52.56
2023-08-19T07:51:15.268Z,52.39
2023-08-19T07:53:42.936Z,51.95
2023-08-19T07:56:10.698Z,52.00
2023-08-19T07:59:33.140Z,52.13
2023-08-19T08:02:01.011Z,51.90
2023-08-19T08:05:00.370Z,51.78
2023-08-19T08:07:53.578Z,51.63
2023-08-19T08:10:25.556Z,51.56
2023-08-19T08:12:56.233Z,51.10
2023-08-19T08:15:24.049Z,51.14
2023-08-19T08:17:51.614Z,51.02
2023-08-19T08:20:19.260Z,50.73
2023-08-19T08:22:46.820Z,50.68
2023-08-19T08:25:14.386Z,50.13
2023-08-19T08:27:42.002Z,50.38
2023-08-19T08:30:09.992Z,50.11
2023-08-19T08:32:37.625Z,50.09
2023-08-19T08:35:05.851Z,49.80
2023-08-19T08:38:11.099Z,49.63
2023-08-19T08:40:47.774Z,49.51
2023-08-19T08:43:15.274Z,49.42
2023-08-19T08:46:26.813Z,49.08
2023-08-19T08:48:54.204Z,48.67
2023-08-19T08:51:22.047Z,49.01
2023-08-19T08:53:49.958Z,48.84
2023-08-19T08:56:17.568Z,48.45
2023-08-19T08:58:45.066Z,48.35
2023-08-19T09:01:12.517Z,48.35
2023-08-19T09:03:40.982Z,47.78
2023-08-19T09:06:17.343Z,48.05
2023-08-19T09:08:49.583Z,48.37
2023-08-19T09:11:22.202Z,47.69
2023-08-19T09:13:53.325Z,46.53
2023-08-19T09:16:20.699Z,46.42
2023-08-19T09:18:48.649Z,46.57
2023-08-19T09:21:16.148Z,46.26
2023-08-19T09:23:44.014Z,45.85
2023-08-19T09:26:14.346Z,45.47
2023-08-19T09:28:41.861Z,45.09
2023-08-19T09:31:21.620Z,44.84
2023-08-19T09:33:49.417Z,45.14
2023-08-19T09:36:17.081Z,45.00
2023-08-19T09:38:44.639Z,43.93
2023-08-19T09:41:12.684Z,43.26
2023-08-19T09:43:41.159Z,43.27
2023-08-19T09:46:09.655Z,43.22
2023-08-19T09:48:37.322Z,42.70
2023-08-19T09:51:05.053Z,42.20
2023-08-19T09:53:32.716Z,42.13
2023-08-19T09:56:00.401Z,41.85
2023-08-19T09:58:28.001Z,41.91
2023-08-19T10:00:55.493Z,42.15
2023-08-19T10:03:23.150Z,41.21
2023-08-19T10:05:53.572Z,40.86
2023-08-19T10:08:23.283Z,40.49
2023-08-19T10:10:51.130Z,40.17
2023-08-19T10:13:18.933Z,39.85
2023-08-19T10:15:47.770Z,39.50
2023-08-19T10:18:18.231Z,39.32
2023-08-19T10:20:51.691Z,39.21
2023-08-19T10:23:19.253Z,39.23
2023-08-19T10:25:46.748Z,39.77
2023-08-19T10:28:15.196Z,39.68
2023-08-19T10:30:43.147Z,38.77
2023-08-19T10:33:33.649Z,39.36
2023-08-19T10:36:05.694Z,38.40
2023-08-19T10:38:52.502Z,38.90
2023-08-19T10:41:23.329Z,39.17
2023-08-19T10:44:13.813Z,38.87
2023-08-19T10:46:48.757Z,38.62
2023-08-19T10:49:19.044Z,38.44
2023-08-19T10:52:02.069Z,38.05
2023-08-19T10:54:43.700Z,37.49
2023-08-19T10:57:24.535Z,37.77
2023-08-19T11:00:00.046Z,38.06
2023-08-19T11:02:29.605Z,37.68
2023-08-19T11:04:58.700Z,36.82
2023-08-19T11:07:26.709Z,37.11
2023-08-19T11:09:57.884Z,36.95
2023-08-19T11:12:27.859Z,37.22
2023-08-19T11:14:58.592Z,37.14
2023-08-19T11:17:32.631Z,37.59
2023-08-19T11:20:09.117Z,37.13
2023-08-19T11:22:44.025Z,37.07
2023-08-19T11:25:11.389Z,36.13
2023-08-19T11:27:38.820Z,35.25
2023-08-19T11:30:09.119Z,34.86
2023-08-19T11:32:36.956Z,35.02
2023-08-19T11:35:05.390Z,34.84
2023-08-19T11:37:32.830Z,34.74
2023-08-19T11:40:04.342Z,35.38
2023-08-19T11:42:36.488Z,35.08
2023-08-19T11:45:08.855Z,35.45
2023-08-19T11:47:36.616Z,35.60
2023-08-19T11:50:06.099Z,35.05
2023-08-19T11:52:36.455Z,35.26
2023-08-19T11:55:05.066Z,34.53
2023-08-19T11:57:36.695Z,34.56
2023-08-19T12:00:08.231Z,34.68
2023-08-19T12:02:41.760Z,34.48
2023-08-19T12:05:09.499Z,34.17
2023-08-19T12:07:38.642Z,33.42
2023-08-19T12:10:06.969Z,33.69
2023-08-19T12:12:34.654Z,33.51
2023-08-19T12:15:02.405Z,32.99
2023-08-19T12:17:29.914Z,32.95
2023-08-19T12:19:57.350Z,32.94
2023-08-19T12:22:24.834Z,33.49
2023-08-19T12:24:52.428Z,33.61
2023-08-19T12:27:19.889Z,33.63
2023-08-19T12:29:49.981Z,34.18
2023-08-19T12:32:42.991Z,34.09
2023-08-19T12:35:10.928Z,33.79
2023-08-19T12:37:38.505Z,33.82
2023-08-19T12:40:07.254Z,33.86
2023-08-19T12:42:46.698Z,33.71
2023-08-19T12:45:16.222Z,33.55
2023-08-19T12:47:43.682Z,33.28
2023-08-19T12:50:49.844Z,33.08
2023-08-19T12:53:24.162Z,32.61
2023-08-19T12:55:51.723Z,32.06
2023-08-19T12:58:19.538Z,31.73
2023-08-19T13:04:30.243Z,30.99
2023-08-19T13:06:57.944Z,31.03
2023-08-19T13:09:26.371Z,31.35
2023-08-19T13:11:53.903Z,31.73
2023-08-19T13:14:21.505Z,31.32
2023-08-19T13:16:49.170Z,30.77
2023-08-19T13:19:16.873Z,30.80
2023-08-19T13:21:44.432Z,30.45
2023-08-19T13:24:11.807Z,30.33
2023-08-19T13:26:39.349Z,30.69
2023-08-19T13:29:06.913Z,30.71
2023-08-19T13:31:34.479Z,30.38
2023-08-19T13:36:15.560Z,30.24
2023-08-19T13:39:31.715Z,29.92
2023-08-19T13:42:24.265Z,29.56
2023-08-19T13:48:14.937Z,27.09
2023-08-19T13:50:44.810Z,24.48
2023-08-19T13:53:12.250Z,22.92
2023-08-19T13:55:40.478Z,21.51
2023-08-19T13:58:07.850Z,20.12
2023-08-19T14:00:35.545Z,18.78
2023-08-19T14:03:07.500Z,17.84
2023-08-19T14:05:38.894Z,16.91
2023-08-19T14:08:07.015Z,15.90
2023-08-19T14:10:34.478Z,15.90
2023-08-19T14:13:02.218Z,15.82
2023-08-19T14:15:52.854Z,14.99
2023-08-19T14:18:20.389Z,14.34
2023-08-19T14:20:47.767Z,13.76
2023-08-19T14:23:27.776Z,13.75
2023-08-19T14:25:55.180Z,13.39
2023-08-19T14:28:22.691Z,13.66
2023-08-19T14:30:50.305Z,13.61
2023-08-19T14:33:17.697Z,13.44
2023-08-19T14:35:46.576Z,13.65
2023-08-19T14:38:14.474Z,13.81
2023-08-19T14:40:42.440Z,13.93
2023-08-19T14:43:10.201Z,13.89
2023-08-19T14:45:37.821Z,13.67
2023-08-19T14:48:08.507Z,13.23
2023-08-19T14:50:37.216Z,12.28
2023-08-19T14:53:05.464Z,12.29
2023-08-19T14:55:32.950Z,12.35
2023-08-19T14:58:00.476Z,12.52
2023-08-19T15:00:28.050Z,12.50
2023-08-19T15:03:17.528Z,12.57
2023-08-19T15:06:06.061Z,12.35
2023-08-19T15:08:37.131Z,13.35
2023-08-19T15:11:04.546Z,13.25
2023-08-19T15:13:32.020Z,13.74
2023-08-19T15:16:30.602Z,14.10
2023-08-19T15:19:13.488Z,14.34
2023-08-19T15:21:44.050Z,14.44
2023-08-19T15:24:12.029Z,14.54
2023-08-19T15:26:39.485Z,14.97
2023-08-19T15:32:38.537Z,14.87
2023-08-19T15:35:51.633Z,15.19
2023-08-19T15:38:38.959Z,16.11
2023-08-19T15:41:31.515Z,16.60
2023-08-19T15:44:16.777Z,17.09
2023-08-19T15:47:11.091Z,17.48
2023-08-19T15:49:38.641Z,18.15
2023-08-19T15:52:06.292Z,18.58
2023-08-19T15:54:33.660Z,18.79
2023-08-19T15:57:01.204Z,19.36
2023-08-19T15:59:54.464Z,19.79
2023-08-19T16:02:22.132Z,20.04
2023-08-19T16:04:50.112Z,20.57
2023-08-19T16:07:17.656Z,21.12
2023-08-19T16:09:46.876Z,21.46
2023-08-19T16:13:05.911Z,22.05
2023-08-19T16:15:33.489Z,22.55
2023-08-19T16:18:01.206Z,22.99
2023-08-19T16:20:28.912Z,23.64
2023-08-19T16:22:56.473Z,24.55
2023-08-19T16:28:53.343Z,25.55
2023-08-19T16:31:20.847Z,26.28
2023-08-19T16:33:48.366Z,27.32
2023-08-19T16:36:15.918Z,27.91
2023-08-19T16:38:43.580Z,28.24
2023-08-19T16:41:11.037Z,28.70
2023-08-19T16:43:38.600Z,29.32
2023-08-19T16:46:51.876Z,29.95
2023-08-19T16:49:19.539Z,30.50
2023-08-19T16:51:46.976Z,30.88
2023-08-19T16:54:14.343Z,31.41
2023-08-19T16:56:41.793Z,31.78
2023-08-19T16:59:09.248Z,33.08
2023-08-19T17:01:38.530Z,34.13
2023-08-19T17:04:06.659Z,34.62
2023-08-19T17:06:34.407Z,35.42
2023-08-19T17:09:02.468Z,36.17
2023-08-19T17:11:29.876Z,36.31
2023-08-19T17:13:57.626Z,37.05
2023-08-19T17:16:25.160Z,37.85
2023-08-19T17:18:52.879Z,38.66
2023-08-19T17:21:20.542Z,39.32
2023-08-19T17:23:48.000Z,39.81
2023-08-19T17:26:15.457Z,39.99
2023-08-19T17:28:45.167Z,40.57
2023-08-19T17:31:12.756Z,41.27
2023-08-19T17:33:40.201Z,41.81
2023-08-19T17:36:07.953Z,42.30
2023-08-19T17:38:41.363Z,42.88
2023-08-19T17:41:09.312Z,43.25
2023-08-19T17:43:37.359Z,43.50
2023-08-19T17:46:04.854Z,43.95
2023-08-19T17:48:32.614Z,44.69
2023-08-19T17:51:03.083Z,45.34
2023-08-19T17:53:32.793Z,46.37
2023-08-19T17:56:00.526Z,46.84
2023-08-19T17:58:31.038Z,47.04
2023-08-19T18:00:59.458Z,47.63
2023-08-19T18:03:27.283Z,47.99
2023-08-19T18:05:54.894Z,48.60
2023-08-19T18:08:22.338Z,48.87
2023-08-19T18:10:50.894Z,49.14
2023-08-19T18:13:18.240Z,49.36
2023-08-19T18:15:46.131Z,49.97
2023-08-19T18:18:13.780Z,50.18
2023-08-19T18:20:41.285Z,50.44
2023-08-19T18:23:08.695Z,50.81
2023-08-19T18:25:36.460Z,50.98
2023-08-19T18:28:04.529Z,51.20
2023-08-19T18:30:32.086Z,51.51
2023-08-19T18:33:00.405Z,51.72
2023-08-19T18:35:27.969Z,51.81
2023-08-19T18:37:56.200Z,52.39
2023-08-19T18:40:23.806Z,52.93
2023-08-19T18:42:51.330Z,53.01
2023-08-19T18:45:18.811Z,53.06
2023-08-19T18:48:03.858Z,53.18
2023-08-19T18:50:32.392Z,53.26
2023-08-19T18:53:00.237Z,53.50
2023-08-19T18:55:31.887Z,54.09
2023-08-19T18:57:59.359Z,54.90
2023-08-19T19:00:27.053Z,55.15
2023-08-19T19:02:54.692Z,55.24
2023-08-19T19:05:22.555Z,55.39
2023-08-19T19:07:50.268Z,55.65
2023-08-19T19:10:18.491Z,55.75
2023-08-19T19:12:47.843Z,56.34
2023-08-19T19:15:15.374Z,56.44
2023-08-19T19:17:53.194Z,56.11
2023-08-19T19:20:21.361Z,55.31
2023-08-19T19:22:48.859Z,55.25
2023-08-19T19:25:18.046Z,55.56
2023-08-19T19:27:45.527Z,55.77
2023-08-19T19:30:13.114Z,55.72
2023-08-19T19:32:42.122Z,55.46
2023-08-19T19:35:12.518Z,56.15
2023-08-19T19:37:41.103Z,56.04
2023-08-19T19:40:09.029Z,54.26
2023-08-19T19:42:39.744Z,53.16
2023-08-19T19:45:08.390Z,53.01
2023-08-19T19:47:37.007Z,53.09
2023-08-19T19:50:05.927Z,52.88
2023-08-19T19:52:33.414Z,52.97
2023-08-19T19:55:01.388Z,53.69
2023-08-19T19:57:28.960Z,54.20
2023-08-19T19:59:56.519Z,54.56
2023-08-19T20:02:23.973Z,54.73
2023-08-19T20:04:51.567Z,54.58
2023-08-19T20:07:18.916Z,54.72
2023-08-19T20:09:46.411Z,55.29
2023-08-19T20:12:13.805Z,56.15
2023-08-19T20:14:41.543Z,56.65
2023-08-19T20:17:09.090Z,56.76
2023-08-19T20:19:36.562Z,56.87
2023-08-19T20:22:04.378Z,56.71
2023-08-19T20:24:32.082Z,56.73
2023-08-19T20:26:59.750Z,56.53
2023-08-19T20:29:27.356Z,56.65
2023-08-19T20:31:54.879Z,56.76
2023-08-19T20:34:22.629Z,56.74
2023-08-19T20:36:50.017Z,56.83
2023-08-19T20:39:17.651Z,57.09
2023-08-19T20:41:45.217Z,57.26
2023-08-19T20:44:14.112Z,57.44
2023-08-19T20:46:42.288Z,57.71
2023-08-19T20:49:14.058Z,57.78
2023-08-19T20:51:41.796Z,57.78
2023-08-19T20:54:11.193Z,57.89
2023-08-19T20:56:38.788Z,58.16
2023-08-19T20:59:06.313Z,58.39
2023-08-19T21:01:33.997Z,58.43
2023-08-19T21:04:01.649Z,58.26
2023-08-19T21:06:29.258Z,58.21
2023-08-19T21:08:56.966Z,58.00
2023-08-19T21:11:24.629Z,58.07
2023-08-19T21:13:52.127Z,58.26
2023-08-19T21:16:19.790Z,58.11
2023-08-19T21:19:21.767Z,58.40
2023-08-19T21:21:49.593Z,58.94
2023-08-19T21:24:17.065Z,59.52
2023-08-19T21:26:44.484Z,59.31
2023-08-19T21:29:11.984Z,59.09
2023-08-19T21:31:39.626Z,59.08
2023-08-19T21:34:07.281Z,59.01
2023-08-19T21:36:34.738Z,58.45
2023-08-19T21:39:02.202Z,58.18
2023-08-19T21:41:29.759Z,57.98
2023-08-19T21:43:57.316Z,57.56
2023-08-19T21:46:24.708Z,57.56
2023-08-19T21:48:52.395Z,57.81
2023-08-19T21:51:20.861Z,57.78
2023-08-19T21:53:49.035Z,57.71
2023-08-19T21:56:16.558Z,57.27
2023-08-19T21:58:44.218Z,57.05
2023-08-19T22:01:11.759Z,57.12
2023-08-19T22:03:39.237Z,57.29
2023-08-19T22:06:06.820Z,56.96
2023-08-19T22:08:34.355Z,56.70
2023-08-19T22:11:01.810Z,56.68
2023-08-19T22:13:29.380Z,56.93
2023-08-19T22:15:57.044Z,57.19
2023-08-19T22:18:24.710Z,57.27
2023-08-19T22:20:52.199Z,57.43
2023-08-19T22:23:20.094Z,57.42
2023-08-19T22:25:47.583Z,57.39
2023-08-19T22:28:15.145Z,57.90
2023-08-19T22:30:42.753Z,58.51
2023-08-19T22:33:10.365Z,58.96
2023-08-19T22:35:37.997Z,59.11
2023-08-19T22:38:05.588Z,59.32
2023-08-19T22:40:33.360Z,59.48
2023-08-19T22:43:01.138Z,59.69
2023-08-19T22:45:28.638Z,60.07
2023-08-19T22:47:56.017Z,60.37
2023-08-19T22:50:23.580Z,60.57
2023-08-19T22:52:51.158Z,60.78
2023-08-19T22:55:18.583Z,60.77
2023-08-19T22:57:46.481Z,60.79
2023-08-19T23:00:14.380Z,60.84
2023-08-19T23:02:41.841Z,61.06
2023-08-19T23:05:11.923Z,61.10
2023-08-19T23:07:42.087Z,61.10
2023-08-19T23:10:10.840Z,61.25
2023-08-19T23:12:38.394Z,61.37
2023-08-19T23:15:06.829Z,61.43
2023-08-19T23:17:34.481Z,61.58
2023-08-19T23:20:02.738Z,61.65
2023-08-19T23:22:30.473Z,61.81
2023-08-19T23:24:58.651Z,61.90
2023-08-19T23:27:26.413Z,61.74
2023-08-19T23:29:53.777Z,61.76
2023-08-19T23:32:21.333Z,61.76
2023-08-19T23:34:48.890Z,61.79
2023-08-19T23:37:16.281Z,61.77
2023-08-19T23:39:43.713Z,61.70
2023-08-19T23:42:11.363Z,61.47
2023-08-19T23:44:38.854Z,61.44
2023-08-19T23:47:07.304Z,61.52
2023-08-19T23:49:35.290Z,61.75
2023-08-19T23:52:02.838Z,61.83
2023-08-19T23:54:30.892Z,62.01
2023-08-19T23:56:58.766Z,62.18
2023-08-19T23:59:26.790Z,62.34
